sensor_id;sensor_type;location;lat;lon;timestamp;pressure;altitude;pressure_sealevel;temperature;humidity
21401;BME280;18038;50.166;18.908;2024-02-23T00:03:03;96045.41;;;8.35;71.56
21401;BME280;18038;50.166;18.908;2024-02-23T00:06:12;96043.78;;;8.34;71.16
21401;BME280;18038;50.166;18.908;2024-02-23T00:09:20;96040.34;;;8.33;71.38
21401;BME280;18038;50.166;18.908;2024-02-23T00:12:28;96039.13;;;8.29;71.44
21401;BME280;18038;50.166;18.908;2024-02-23T00:15:39;96038.31;;;8.29;71.32
21401;BME280;18038;50.166;18.908;2024-02-23T00:18:47;96030.97;;;8.31;71.18
21401;BME280;18038;50.166;18.908;2024-02-23T00:21:55;96031.19;;;8.29;71.38
21401;BME280;18038;50.166;18.908;2024-02-23T00:25:04;96020.81;;;8.28;71.40
21401;BME280;18038;50.166;18.908;2024-02-23T00:28:12;96020.41;;;8.24;71.71
21401;BME280;18038;50.166;18.908;2024-02-23T00:31:22;96016.50;;;8.26;71.46
21401;BME280;18038;50.166;18.908;2024-02-23T00:34:30;96022.47;;;8.22;71.72
21401;BME280;18038;50.166;18.908;2024-02-23T00:37:38;96017.59;;;8.19;71.92
21401;BME280;18038;50.166;18.908;2024-02-23T00:40:46;96016.19;;;8.16;71.46
21401;BME280;18038;50.166;18.908;2024-02-23T00:43:53;96017.81;;;8.17;71.37
21401;BME280;18038;50.166;18.908;2024-02-23T00:47:05;96017.38;;;8.20;71.16
21401;BME280;18038;50.166;18.908;2024-02-23T00:50:13;96017.16;;;8.22;71.25
21401;BME280;18038;50.166;18.908;2024-02-23T00:53:22;96017.22;;;8.15;71.58
21401;BME280;18038;50.166;18.908;2024-02-23T00:56:29;96025.19;;;8.15;71.05
21401;BME280;18038;50.166;18.908;2024-02-23T00:59:53;96017.38;;;8.20;71.19
21401;BME280;18038;50.166;18.908;2024-02-23T01:03:04;96023.88;;;8.24;70.88
21401;BME280;18038;50.166;18.908;2024-02-23T01:06:12;96028.16;;;8.25;70.40
21401;BME280;18038;50.166;18.908;2024-02-23T01:09:21;96028.91;;;8.33;70.22
21401;BME280;18038;50.166;18.908;2024-02-23T01:12:29;96029.72;;;8.33;70.24
21401;BME280;18038;50.166;18.908;2024-02-23T01:15:36;96030.53;;;8.34;69.72
21401;BME280;18038;50.166;18.908;2024-02-23T01:18:47;96032.13;;;8.35;69.54
21401;BME280;18038;50.166;18.908;2024-02-23T01:21:59;96024.34;;;8.40;69.18
21401;BME280;18038;50.166;18.908;2024-02-23T01:25:07;96022.72;;;8.39;68.87
21401;BME280;18038;50.166;18.908;2024-02-23T01:28:15;96019.47;;;8.37;68.99
21401;BME280;18038;50.166;18.908;2024-02-23T01:31:23;96018.66;;;8.36;69.06
21401;BME280;18038;50.166;18.908;2024-02-23T01:34:33;96023.75;;;8.38;68.95
21401;BME280;18038;50.166;18.908;2024-02-23T01:37:41;96021.09;;;8.38;69.35
21401;BME280;18038;50.166;18.908;2024-02-23T01:40:48;96021.53;;;8.35;69.32
21401;BME280;18038;50.166;18.908;2024-02-23T01:43:57;96025.22;;;8.34;69.77
21401;BME280;18038;50.166;18.908;2024-02-23T01:47:05;96018.16;;;8.28;70.25
21401;BME280;18038;50.166;18.908;2024-02-23T01:50:16;96015.53;;;8.21;70.33
21401;BME280;18038;50.166;18.908;2024-02-23T01:53:25;96012.28;;;8.19;70.74
21401;BME280;18038;50.166;18.908;2024-02-23T01:56:36;96014.13;;;8.18;70.97
21401;BME280;18038;50.166;18.908;2024-02-23T01:59:45;96013.34;;;8.18;70.67
21401;BME280;18038;50.166;18.908;2024-02-23T02:02:53;96009.28;;;8.15;70.39
21401;BME280;18038;50.166;18.908;2024-02-23T02:06:04;96014.56;;;8.15;70.38
21401;BME280;18038;50.166;18.908;2024-02-23T02:09:13;96015.38;;;8.16;70.31
21401;BME280;18038;50.166;18.908;2024-02-23T02:12:26;96019.22;;;8.20;69.53
21401;BME280;18038;50.166;18.908;2024-02-23T02:15:35;96014.75;;;8.20;69.77
21401;BME280;18038;50.166;18.908;2024-02-23T02:18:42;96013.94;;;8.20;69.86
21401;BME280;18038;50.166;18.908;2024-02-23T02:21:53;96011.47;;;8.18;70.13
21401;BME280;18038;50.166;18.908;2024-02-23T02:25:01;96020.25;;;8.19;69.93
21401;BME280;18038;50.166;18.908;2024-02-23T02:28:09;96017.59;;;8.19;70.11
21401;BME280;18038;50.166;18.908;2024-02-23T02:31:16;96023.34;;;8.16;70.85
21401;BME280;18038;50.166;18.908;2024-02-23T02:34:24;96017.28;;;8.09;72.04
21401;BME280;18038;50.166;18.908;2024-02-23T02:37:35;96021.41;;;8.04;72.88
21401;BME280;18038;50.166;18.908;2024-02-23T02:40:43;96030.44;;;7.97;73.30
21401;BME280;18038;50.166;18.908;2024-02-23T02:43:51;96036.97;;;7.94;73.91
21401;BME280;18038;50.166;18.908;2024-02-23T02:47:00;96041.50;;;7.87;74.94
21401;BME280;18038;50.166;18.908;2024-02-23T02:50:09;96038.47;;;7.83;74.73
21401;BME280;18038;50.166;18.908;2024-02-23T02:53:19;96034.41;;;7.81;75.13
21401;BME280;18038;50.166;18.908;2024-02-23T02:56:27;96033.63;;;7.80;75.44
21401;BME280;18038;50.166;18.908;2024-02-23T02:59:35;96036.03;;;7.82;76.01
21401;BME280;18038;50.166;18.908;2024-02-23T03:02:42;96042.38;;;7.81;76.41
21401;BME280;18038;50.166;18.908;2024-02-23T03:05:50;96048.31;;;7.76;75.93
21401;BME280;18038;50.166;18.908;2024-02-23T03:09:00;96044.66;;;7.77;76.13
21401;BME280;18038;50.166;18.908;2024-02-23T03:12:10;96049.94;;;7.77;76.67
21401;BME280;18038;50.166;18.908;2024-02-23T03:15:18;96051.81;;;7.70;77.44
21401;BME280;18038;50.166;18.908;2024-02-23T03:18:26;96057.56;;;7.67;78.48
21401;BME280;18038;50.166;18.908;2024-02-23T03:21:34;96059.59;;;7.65;78.79
21401;BME280;18038;50.166;18.908;2024-02-23T03:24:46;96070.44;;;7.57;79.59
21401;BME280;18038;50.166;18.908;2024-02-23T03:27:53;96073.53;;;7.54;80.07
21401;BME280;18038;50.166;18.908;2024-02-23T03:31:01;96079.06;;;7.46;79.89
21401;BME280;18038;50.166;18.908;2024-02-23T03:34:08;96077.88;;;7.42;80.56
21401;BME280;18038;50.166;18.908;2024-02-23T03:37:18;96085.19;;;7.39;81.02
21401;BME280;18038;50.166;18.908;2024-02-23T03:40:27;96079.53;;;7.36;81.44
21401;BME280;18038;50.166;18.908;2024-02-23T03:43:36;96083.41;;;7.33;81.62
21401;BME280;18038;50.166;18.908;2024-02-23T03:46:43;96080.16;;;7.31;82.21
21401;BME280;18038;50.166;18.908;2024-02-23T03:49:51;96089.56;;;7.27;82.50
21401;BME280;18038;50.166;18.908;2024-02-23T03:52:58;96083.66;;;7.25;83.26
21401;BME280;18038;50.166;18.908;2024-02-23T03:56:09;96089.56;;;7.21;83.18
21401;BME280;18038;50.166;18.908;2024-02-23T03:59:16;96072.47;;;7.16;84.04
21401;BME280;18038;50.166;18.908;2024-02-23T04:02:25;96083.44;;;7.13;84.06
21401;BME280;18038;50.166;18.908;2024-02-23T04:05:36;96077.75;;;7.10;84.02
21401;BME280;18038;50.166;18.908;2024-02-23T04:08:44;96088.34;;;7.10;83.84
21401;BME280;18038;50.166;18.908;2024-02-23T04:11:56;96094.03;;;7.13;84.23
21401;BME280;18038;50.166;18.908;2024-02-23T04:15:05;96097.50;;;7.14;84.22
21401;BME280;18038;50.166;18.908;2024-02-23T04:18:13;96100.34;;;7.12;83.85
21401;BME280;18038;50.166;18.908;2024-02-23T04:21:21;96097.53;;;7.07;84.67
21401;BME280;18038;50.166;18.908;2024-02-23T04:24:28;96099.56;;;7.05;84.50
21401;BME280;18038;50.166;18.908;2024-02-23T04:27:39;96099.97;;;7.02;84.93
21401;BME280;18038;50.166;18.908;2024-02-23T04:30:47;96109.56;;;7.03;85.06
21401;BME280;18038;50.166;18.908;2024-02-23T04:33:55;96116.47;;;7.04;85.68
21401;BME280;18038;50.166;18.908;2024-02-23T04:37:02;96113.03;;;7.04;86.75
21401;BME280;18038;50.166;18.908;2024-02-23T04:40:11;96116.47;;;6.98;87.00
21401;BME280;18038;50.166;18.908;2024-02-23T04:43:21;96114.47;;;6.93;87.82
21401;BME280;18038;50.166;18.908;2024-02-23T04:46:31;96123.63;;;6.90;88.57
21401;BME280;18038;50.166;18.908;2024-02-23T04:49:38;96116.09;;;6.94;88.70
21401;BME280;18038;50.166;18.908;2024-02-23T04:52:46;96125.44;;;6.97;89.29
21401;BME280;18038;50.166;18.908;2024-02-23T04:55:54;96132.19;;;6.92;88.74
21401;BME280;18038;50.166;18.908;2024-02-23T04:59:04;96136.44;;;6.93;89.45
21401;BME280;18038;50.166;18.908;2024-02-23T05:02:12;96129.13;;;6.89;89.71
21401;BME280;18038;50.166;18.908;2024-02-23T05:05:20;96134.00;;;6.92;89.97
21401;BME280;18038;50.166;18.908;2024-02-23T05:08:28;96132.81;;;6.88;90.48
21401;BME280;18038;50.166;18.908;2024-02-23T05:11:37;96140.31;;;6.84;90.18
21401;BME280;18038;50.166;18.908;2024-02-23T05:14:47;96146.66;;;6.83;90.61
21401;BME280;18038;50.166;18.908;2024-02-23T05:17:55;96136.66;;;6.79;91.42
21401;BME280;18038;50.166;18.908;2024-02-23T05:21:03;96142.59;;;6.74;91.65
21401;BME280;18038;50.166;18.908;2024-02-23T05:24:11;96142.41;;;6.69;92.78
21401;BME280;18038;50.166;18.908;2024-02-23T05:27:19;96146.06;;;6.68;93.17
21401;BME280;18038;50.166;18.908;2024-02-23T05:30:29;96154.00;;;6.61;93.66
21401;BME280;18038;50.166;18.908;2024-02-23T05:33:37;96156.63;;;6.55;94.47
21401;BME280;18038;50.166;18.908;2024-02-23T05:36:46;96158.88;;;6.51;94.77
21401;BME280;18038;50.166;18.908;2024-02-23T05:39:54;96166.22;;;6.49;95.11
21401;BME280;18038;50.166;18.908;2024-02-23T05:43:04;96169.88;;;6.48;95.17
21401;BME280;18038;50.166;18.908;2024-02-23T05:46:14;96166.22;;;6.49;95.27
21401;BME280;18038;50.166;18.908;2024-02-23T05:49:23;96181.06;;;6.50;95.21
21401;BME280;18038;50.166;18.908;2024-02-23T05:52:31;96182.31;;;6.47;95.59
21401;BME280;18038;50.166;18.908;2024-02-23T05:55:40;96191.03;;;6.48;95.95
21401;BME280;18038;50.166;18.908;2024-02-23T05:58:48;96190.41;;;6.46;95.83
21401;BME280;18038;50.166;18.908;2024-02-23T06:01:58;96193.06;;;6.46;96.30
21401;BME280;18038;50.166;18.908;2024-02-23T06:05:07;96209.13;;;6.44;97.31
21401;BME280;18038;50.166;18.908;2024-02-23T06:08:15;96205.06;;;6.42;97.47
21401;BME280;18038;50.166;18.908;2024-02-23T06:11:22;96210.34;;;6.42;97.92
21401;BME280;18038;50.166;18.908;2024-02-23T06:14:31;96220.72;;;6.43;98.25
21401;BME280;18038;50.166;18.908;2024-02-23T06:17:40;96226.03;;;6.43;98.34
21401;BME280;18038;50.166;18.908;2024-02-23T06:20:49;96227.06;;;6.42;99.04
21401;BME280;18038;50.166;18.908;2024-02-23T06:23:57;96230.50;;;6.43;99.16
21401;BME280;18038;50.166;18.908;2024-02-23T06:27:05;96229.06;;;6.40;99.43
21401;BME280;18038;50.166;18.908;2024-02-23T06:30:12;96237.81;;;6.41;99.59
21401;BME280;18038;50.166;18.908;2024-02-23T06:33:23;96245.94;;;6.39;99.91
21401;BME280;18038;50.166;18.908;2024-02-23T06:36:31;96253.69;;;6.41;99.73
21401;BME280;18038;50.166;18.908;2024-02-23T06:39:39;96256.13;;;6.42;100.00
21401;BME280;18038;50.166;18.908;2024-02-23T06:42:46;96262.03;;;6.38;99.96
21401;BME280;18038;50.166;18.908;2024-02-23T06:45:55;96274.44;;;6.44;100.00
21401;BME280;18038;50.166;18.908;2024-02-23T06:49:04;96282.19;;;6.45;100.00
21401;BME280;18038;50.166;18.908;2024-02-23T06:52:13;96289.91;;;6.47;100.00
21401;BME280;18038;50.166;18.908;2024-02-23T06:55:20;96301.72;;;6.51;100.00
21401;BME280;18038;50.166;18.908;2024-02-23T06:58:28;96308.44;;;6.54;100.00
21401;BME280;18038;50.166;18.908;2024-02-23T07:01:35;96307.22;;;6.63;100.00
21401;BME280;18038;50.166;18.908;2024-02-23T07:04:47;96314.59;;;6.74;100.00
21401;BME280;18038;50.166;18.908;2024-02-23T07:07:54;96321.72;;;6.80;100.00
21401;BME280;18038;50.166;18.908;2024-02-23T07:11:03;96328.22;;;6.84;100.00
21401;BME280;18038;50.166;18.908;2024-02-23T07:14:11;96329.28;;;6.90;100.00
21401;BME280;18038;50.166;18.908;2024-02-23T07:17:21;96330.69;;;6.92;100.00
21401;BME280;18038;50.166;18.908;2024-02-23T07:20:31;96318.91;;;6.95;100.00
21401;BME280;18038;50.166;18.908;2024-02-23T07:23:40;96318.06;;;6.88;100.00
21401;BME280;18038;50.166;18.908;2024-02-23T07:26:47;96320.94;;;6.93;100.00
21401;BME280;18038;50.166;18.908;2024-02-23T07:29:55;96317.25;;;6.87;100.00
21401;BME280;18038;50.166;18.908;2024-02-23T07:33:03;96315.00;;;6.84;100.00
21401;BME280;18038;50.166;18.908;2024-02-23T07:36:16;96311.94;;;6.81;100.00
21401;BME280;18038;50.166;18.908;2024-02-23T07:39:24;96313.34;;;6.70;100.00
21401;BME280;18038;50.166;18.908;2024-02-23T07:42:32;96324.75;;;6.64;100.00
21401;BME280;18038;50.166;18.908;2024-02-23T07:45:41;96320.84;;;6.53;100.00
21401;BME280;18038;50.166;18.908;2024-02-23T07:48:49;96322.06;;;6.50;100.00
21401;BME280;18038;50.166;18.908;2024-02-23T07:51:59;96318.59;;;6.43;100.00
21401;BME280;18038;50.166;18.908;2024-02-23T07:55:08;96325.13;;;6.47;100.00
21401;BME280;18038;50.166;18.908;2024-02-23T07:58:19;96325.72;;;6.43;100.00
21401;BME280;18038;50.166;18.908;2024-02-23T08:01:28;96333.25;;;6.52;100.00
21401;BME280;18038;50.166;18.908;2024-02-23T08:04:36;96340.41;;;6.59;100.00
21401;BME280;18038;50.166;18.908;2024-02-23T08:07:47;96336.94;;;6.65;100.00
21401;BME280;18038;50.166;18.908;2024-02-23T08:10:56;96343.25;;;6.70;100.00
21401;BME280;18038;50.166;18.908;2024-02-23T08:14:04;96349.59;;;6.76;100.00
21401;BME280;18038;50.166;18.908;2024-02-23T08:17:12;96355.31;;;6.80;100.00
21401;BME280;18038;50.166;18.908;2024-02-23T08:20:21;96350.63;;;6.88;100.00
21401;BME280;18038;50.166;18.908;2024-02-23T08:23:31;96364.09;;;6.93;100.00
21401;BME280;18038;50.166;18.908;2024-02-23T08:26:39;96369.59;;;6.99;100.00
21401;BME280;18038;50.166;18.908;2024-02-23T08:29:47;96365.72;;;7.08;100.00
21401;BME280;18038;50.166;18.908;2024-02-23T08:32:55;96355.56;;;7.11;100.00
21401;BME280;18038;50.166;18.908;2024-02-23T08:36:02;96363.34;;;7.20;100.00
21401;BME280;18038;50.166;18.908;2024-02-23T08:39:15;96375.94;;;7.11;100.00
21401;BME280;18038;50.166;18.908;2024-02-23T08:42:22;96368.78;;;7.11;100.00
21401;BME280;18038;50.166;18.908;2024-02-23T08:45:30;96376.34;;;7.21;100.00
21401;BME280;18038;50.166;18.908;2024-02-23T08:48:37;96385.13;;;7.22;100.00
21401;BME280;18038;50.166;18.908;2024-02-23T08:51:46;96384.69;;;7.18;100.00
21401;BME280;18038;50.166;18.908;2024-02-23T08:54:55;96380.59;;;7.15;100.00
21401;BME280;18038;50.166;18.908;2024-02-23T08:58:05;96391.19;;;7.09;100.00
21401;BME280;18038;50.166;18.908;2024-02-23T09:01:13;96382.22;;;7.10;100.00
21401;BME280;18038;50.166;18.908;2024-02-23T09:04:21;96380.16;;;7.05;100.00
21401;BME280;18038;50.166;18.908;2024-02-23T09:07:28;96388.97;;;7.06;100.00
21401;BME280;18038;50.166;18.908;2024-02-23T09:10:40;96397.50;;;7.14;100.00
21401;BME280;18038;50.166;18.908;2024-02-23T09:13:47;96389.59;;;7.21;100.00
21401;BME280;18038;50.166;18.908;2024-02-23T09:16:55;96396.28;;;7.17;100.00
21401;BME280;18038;50.166;18.908;2024-02-23T09:20:03;96405.91;;;7.25;100.00
21401;BME280;18038;50.166;18.908;2024-02-23T09:23:13;96411.63;;;7.22;100.00
21401;BME280;18038;50.166;18.908;2024-02-23T09:26:23;96425.44;;;7.24;100.00
21401;BME280;18038;50.166;18.908;2024-02-23T09:29:31;96419.56;;;7.28;100.00
21401;BME280;18038;50.166;18.908;2024-02-23T09:32:38;96419.75;;;7.33;100.00
21401;BME280;18038;50.166;18.908;2024-02-23T09:35:46;96418.56;;;7.43;100.00
21401;BME280;18038;50.166;18.908;2024-02-23T09:38:54;96437.69;;;7.45;100.00
21401;BME280;18038;50.166;18.908;2024-02-23T09:42:10;96435.25;;;7.50;100.00
21401;BME280;18038;50.166;18.908;2024-02-23T09:45:17;96446.06;;;7.55;100.00
21401;BME280;18038;50.166;18.908;2024-02-23T09:48:26;96456.47;;;7.56;100.00
21401;BME280;18038;50.166;18.908;2024-02-23T09:51:39;96456.47;;;7.56;100.00
21401;BME280;18038;50.166;18.908;2024-02-23T09:54:47;96447.28;;;7.66;100.00
21401;BME280;18038;50.166;18.908;2024-02-23T09:57:57;96441.78;;;7.67;100.00
21401;BME280;18038;50.166;18.908;2024-02-23T10:01:07;96456.47;;;7.70;100.00
21401;BME280;18038;50.166;18.908;2024-02-23T10:04:16;96452.78;;;7.71;99.82
21401;BME280;18038;50.166;18.908;2024-02-23T10:07:25;96455.25;;;7.72;98.97
21401;BME280;18038;50.166;18.908;2024-02-23T10:10:33;96453.19;;;7.81;99.21
21401;BME280;18038;50.166;18.908;2024-02-23T10:13:47;96455.25;;;7.79;97.32
21401;BME280;18038;50.166;18.908;2024-02-23T10:16:56;96456.69;;;7.88;97.46
21401;BME280;18038;50.166;18.908;2024-02-23T10:20:05;96447.50;;;7.84;97.26
21401;BME280;18038;50.166;18.908;2024-02-23T10:23:14;96453.19;;;7.81;97.30
21401;BME280;18038;50.166;18.908;2024-02-23T10:26:24;96453.41;;;7.79;97.18
21401;BME280;18038;50.166;18.908;2024-02-23T10:29:36;96441.78;;;7.80;97.01
21401;BME280;18038;50.166;18.908;2024-02-23T10:32:45;96448.72;;;7.81;96.49
21401;BME280;18038;50.166;18.908;2024-02-23T10:35:56;96451.59;;;7.80;96.13
21401;BME280;18038;50.166;18.908;2024-02-23T10:39:06;96456.25;;;7.71;95.71
21401;BME280;18038;50.166;18.908;2024-02-23T10:42:20;96463.22;;;7.72;96.23
21401;BME280;18038;50.166;18.908;2024-02-23T10:45:34;96467.88;;;7.83;96.85
21401;BME280;18038;50.166;18.908;2024-02-23T10:48:45;96473.59;;;7.87;96.05
21401;BME280;18038;50.166;18.908;2024-02-23T10:51:54;96478.91;;;7.80;95.34
21401;BME280;18038;50.166;18.908;2024-02-23T10:55:02;96469.91;;;7.68;96.51
21401;BME280;18038;50.166;18.908;2024-02-23T10:58:11;96490.91;;;7.76;97.30
21401;BME280;18038;50.166;18.908;2024-02-23T11:01:24;96490.94;;;7.70;97.18
21401;BME280;18038;50.166;18.908;2024-02-23T11:04:34;96474.81;;;7.65;97.13
21401;BME280;18038;50.166;18.908;2024-02-23T11:07:42;96480.31;;;7.63;97.28
21401;BME280;18038;50.166;18.908;2024-02-23T11:10:54;96472.34;;;7.63;97.94
21401;BME280;18038;50.166;18.908;2024-02-23T11:14:02;96475.00;;;7.63;97.75
21401;BME280;18038;50.166;18.908;2024-02-23T11:17:21;96482.34;;;7.61;98.15
21401;BME280;18038;50.166;18.908;2024-02-23T11:20:34;96484.19;;;7.67;98.28
21401;BME280;18038;50.166;18.908;2024-02-23T11:23:47;96498.25;;;7.61;98.08
21401;BME280;18038;50.166;18.908;2024-02-23T11:26:56;96487.25;;;7.64;99.40
21401;BME280;18038;50.166;18.908;2024-02-23T11:30:07;96497.84;;;7.71;99.22
21401;BME280;18038;50.166;18.908;2024-02-23T11:33:25;96494.19;;;7.72;98.31
21401;BME280;18038;50.166;18.908;2024-02-23T11:36:35;96488.69;;;7.67;98.46
21401;BME280;18038;50.166;18.908;2024-02-23T11:39:46;96487.66;;;7.68;98.50
21401;BME280;18038;50.166;18.908;2024-02-23T11:42:55;96510.69;;;7.74;99.71
21401;BME280;18038;50.166;18.908;2024-02-23T11:46:04;96513.13;;;7.69;99.31
21401;BME280;18038;50.166;18.908;2024-02-23T11:49:14;96509.69;;;7.81;99.19
21401;BME280;18038;50.166;18.908;2024-02-23T11:52:22;96511.50;;;7.74;98.67
21401;BME280;18038;50.166;18.908;2024-02-23T11:55:31;96526.41;;;7.75;98.73
21401;BME280;18038;50.166;18.908;2024-02-23T11:58:39;96521.94;;;7.82;98.91
21401;BME280;18038;50.166;18.908;2024-02-23T12:01:47;96534.16;;;7.90;98.41
21401;BME280;18038;50.166;18.908;2024-02-23T12:04:57;96548.81;;;7.93;97.85
21401;BME280;18038;50.166;18.908;2024-02-23T12:08:06;96546.41;;;7.91;97.92
21401;BME280;18038;50.166;18.908;2024-02-23T12:11:14;96534.75;;;7.92;97.61
21401;BME280;18038;50.166;18.908;2024-02-23T12:14:25;96531.91;;;7.94;97.98
21401;BME280;18038;50.166;18.908;2024-02-23T12:17:35;96524.38;;;7.84;97.21
21401;BME280;18038;50.166;18.908;2024-02-23T12:20:47;96512.75;;;7.78;98.21
21401;BME280;18038;50.166;18.908;2024-02-23T12:23:55;96517.44;;;7.83;98.45
21401;BME280;18038;50.166;18.908;2024-02-23T12:27:04;96540.28;;;7.91;98.54
21401;BME280;18038;50.166;18.908;2024-02-23T12:30:13;96539.25;;;8.05;98.65
21401;BME280;18038;50.166;18.908;2024-02-23T12:33:22;96525.78;;;8.13;98.98
21401;BME280;18038;50.166;18.908;2024-02-23T12:36:34;96522.94;;;8.01;97.30
21401;BME280;18038;50.166;18.908;2024-02-23T12:39:44;96523.34;;;8.05;98.41
21401;BME280;18038;50.166;18.908;2024-02-23T12:42:52;96532.75;;;8.14;97.85
21401;BME280;18038;50.166;18.908;2024-02-23T12:46:00;96532.34;;;8.17;97.48
21401;BME280;18038;50.166;18.908;2024-02-23T12:49:08;96535.78;;;8.11;97.84
21401;BME280;18038;50.166;18.908;2024-02-23T12:52:18;96528.84;;;8.10;96.83
21401;BME280;18038;50.166;18.908;2024-02-23T12:55:26;96537.44;;;8.12;97.01
21401;BME280;18038;50.166;18.908;2024-02-23T12:58:36;96546.59;;;8.16;97.11
21401;BME280;18038;50.166;18.908;2024-02-23T13:01:45;96548.44;;;8.29;97.05
21401;BME280;18038;50.166;18.908;2024-02-23T13:04:56;96545.38;;;8.39;97.29
21401;BME280;18038;50.166;18.908;2024-02-23T13:08:06;96547.00;;;8.40;97.08
21401;BME280;18038;50.166;18.908;2024-02-23T13:11:14;96555.78;;;8.27;96.89
21401;BME280;18038;50.166;18.908;2024-02-23T13:14:22;96543.97;;;8.23;96.67
21401;BME280;18038;50.166;18.908;2024-02-23T13:17:30;96546.38;;;8.24;97.43
21401;BME280;18038;50.166;18.908;2024-02-23T13:20:38;96537.63;;;8.31;96.85
21401;BME280;18038;50.166;18.908;2024-02-23T13:23:49;96541.91;;;8.32;95.94
21401;BME280;18038;50.166;18.908;2024-02-23T13:26:57;96554.78;;;8.28;95.40
21401;BME280;18038;50.166;18.908;2024-02-23T13:30:06;96549.44;;;8.21;96.33
21401;BME280;18038;50.166;18.908;2024-02-23T13:33:14;96556.19;;;8.24;95.31
21401;BME280;18038;50.166;18.908;2024-02-23T13:36:24;96561.28;;;8.25;95.22
21401;BME280;18038;50.166;18.908;2024-02-23T13:39:34;96572.50;;;8.21;95.45
21401;BME280;18038;50.166;18.908;2024-02-23T13:42:42;96580.69;;;8.19;96.04
21401;BME280;18038;50.166;18.908;2024-02-23T13:45:53;96587.41;;;8.22;96.78
21401;BME280;18038;50.166;18.908;2024-02-23T13:49:06;96586.00;;;8.19;96.13
21401;BME280;18038;50.166;18.908;2024-02-23T13:52:16;96585.16;;;8.05;96.24
21401;BME280;18038;50.166;18.908;2024-02-23T13:55:27;96589.44;;;8.00;97.16
21401;BME280;18038;50.166;18.908;2024-02-23T13:58:34;96585.94;;;7.93;97.43
21401;BME280;18038;50.166;18.908;2024-02-23T14:01:42;96587.56;;;7.87;97.38
21401;BME280;18038;50.166;18.908;2024-02-23T14:04:49;96592.69;;;7.89;96.75
21401;BME280;18038;50.166;18.908;2024-02-23T14:07:57;96585.16;;;7.86;97.08
21401;BME280;18038;50.166;18.908;2024-02-23T14:11:08;96578.59;;;7.81;96.28
21401;BME280;18038;50.166;18.908;2024-02-23T14:14:16;96588.78;;;7.78;96.94
21401;BME280;18038;50.166;18.908;2024-02-23T14:17:24;96586.78;;;7.80;98.06
21401;BME280;18038;50.166;18.908;2024-02-23T14:20:32;96590.63;;;7.77;97.68
21401;BME280;18038;50.166;18.908;2024-02-23T14:23:39;96595.50;;;7.74;97.46
21401;BME280;18038;50.166;18.908;2024-02-23T14:26:50;96590.84;;;7.82;98.00
21401;BME280;18038;50.166;18.908;2024-02-23T14:29:58;96591.25;;;7.86;97.95
21401;BME280;18038;50.166;18.908;2024-02-23T14:33:06;96600.22;;;7.78;97.89
21401;BME280;18038;50.166;18.908;2024-02-23T14:36:13;96589.41;;;7.73;98.87
21401;BME280;18038;50.166;18.908;2024-02-23T14:39:21;96566.38;;;7.80;98.66
21401;BME280;18038;50.166;18.908;2024-02-23T14:42:31;96570.47;;;7.96;98.49
21401;BME280;18038;50.166;18.908;2024-02-23T14:45:41;96566.59;;;7.99;97.91
21401;BME280;18038;50.166;18.908;2024-02-23T14:48:48;96584.97;;;8.07;97.77
21401;BME280;18038;50.166;18.908;2024-02-23T14:51:56;96577.84;;;8.14;97.01
21401;BME280;18038;50.166;18.908;2024-02-23T14:55:04;96578.03;;;8.26;97.34
21401;BME280;18038;50.166;18.908;2024-02-23T14:58:18;96577.00;;;8.14;96.33
21401;BME280;18038;50.166;18.908;2024-02-23T15:01:26;96588.63;;;8.13;96.05
21401;BME280;18038;50.166;18.908;2024-02-23T15:04:36;96572.91;;;8.11;96.44
21401;BME280;18038;50.166;18.908;2024-02-23T15:07:43;96581.91;;;8.10;97.48
21401;BME280;18038;50.166;18.908;2024-02-23T15:10:52;96575.16;;;8.21;96.44
21401;BME280;18038;50.166;18.908;2024-02-23T15:14:02;96579.25;;;8.10;96.00
21401;BME280;18038;50.166;18.908;2024-02-23T15:17:10;96576.41;;;8.12;96.66
21401;BME280;18038;50.166;18.908;2024-02-23T15:20:18;96570.47;;;8.16;96.56
21401;BME280;18038;50.166;18.908;2024-02-23T15:23:26;96575.78;;;8.23;96.04
21401;BME280;18038;50.166;18.908;2024-02-23T15:26:33;96569.66;;;8.22;96.28
21401;BME280;18038;50.166;18.908;2024-02-23T15:29:44;96577.22;;;8.25;96.76
21401;BME280;18038;50.166;18.908;2024-02-23T15:32:52;96574.34;;;8.27;96.61
21401;BME280;18038;50.166;18.908;2024-02-23T15:36:00;96577.41;;;8.37;96.52
21401;BME280;18038;50.166;18.908;2024-02-23T15:39:08;96572.72;;;8.33;96.28
21401;BME280;18038;50.166;18.908;2024-02-23T15:42:16;96582.94;;;8.36;96.66
21401;BME280;18038;50.166;18.908;2024-02-23T15:45:27;96566.81;;;8.31;96.60
21401;BME280;18038;50.166;18.908;2024-02-23T15:48:35;96574.16;;;8.29;96.62
21401;BME280;18038;50.166;18.908;2024-02-23T15:51:42;96588.81;;;8.24;96.63
21401;BME280;18038;50.166;18.908;2024-02-23T15:55:00;96590.28;;;8.20;97.79
21401;BME280;18038;50.166;18.908;2024-02-23T15:58:08;96579.66;;;8.20;97.75
21401;BME280;18038;50.166;18.908;2024-02-23T16:01:20;96587.81;;;8.12;97.57
21401;BME280;18038;50.166;18.908;2024-02-23T16:04:28;96582.09;;;8.15;97.24
21401;BME280;18038;50.166;18.908;2024-02-23T16:07:36;96593.53;;;8.16;97.84
21401;BME280;18038;50.166;18.908;2024-02-23T16:10:44;96589.25;;;8.15;97.49
21401;BME280;18038;50.166;18.908;2024-02-23T16:13:52;96600.66;;;8.09;97.18
21401;BME280;18038;50.166;18.908;2024-02-23T16:17:02;96612.06;;;8.02;98.23
21401;BME280;18038;50.166;18.908;2024-02-23T16:20:11;96603.31;;;8.02;97.99
21401;BME280;18038;50.166;18.908;2024-02-23T16:23:19;96606.78;;;7.96;98.45
21401;BME280;18038;50.166;18.908;2024-02-23T16:26:27;96608.00;;;7.93;98.37
21401;BME280;18038;50.166;18.908;2024-02-23T16:29:38;96604.09;;;7.89;99.06
21401;BME280;18038;50.166;18.908;2024-02-23T16:32:49;96599.03;;;7.88;99.09
21401;BME280;18038;50.166;18.908;2024-02-23T16:35:57;96595.34;;;7.89;99.34
21401;BME280;18038;50.166;18.908;2024-02-23T16:39:05;96602.88;;;7.92;99.68